Time;durP1;ratioP1;P1;durP2;ratioP2;P2;SDS_P1;SDS_P2;PMS_P1;PMS_P2;Temp;Humidity;BMP_temperature;BMP_pressure;BME280_temperature;BME280_humidity;BME280_pressure;Samples;Min_cycle;Max_cycle;Signal;HPM_P1;HPM_P2
2023/07/14 00:01:56;;;;;;;16.60;14.00;;;;;;;17.26;90.32;100196.35;1665278;85;25657;-61
2023/07/14 00:04:33;;;;;;;14.93;12.85;;;;;;;17.24;90.43;100193.19;1673288;85;27562;-59
2023/07/14 00:07:01;;;;;;;15.63;12.35;;;;;;;17.21;90.51;100193.89;1649019;85;25597;-60
2023/07/14 00:09:32;;;;;;;15.10;12.53;;;;;;;17.17;90.10;100203.97;1673413;85;25526;-60
2023/07/14 00:12:00;;;;;;;16.07;12.50;;;;;;;17.15;90.38;100198.85;1673217;85;25514;-60
2023/07/14 00:14:28;;;;;;;13.65;11.35;;;;;;;17.13;90.03;100210.72;1673311;85;25593;-60
2023/07/14 00:16:55;;;;;;;15.90;13.53;;;;;;;17.10;89.78;100215.52;1673269;85;27537;-60
2023/07/14 00:19:24;;;;;;;18.10;14.70;;;;;;;17.08;90.02;100220.55;1673173;85;25590;-60
2023/07/14 00:21:51;;;;;;;20.00;13.40;;;;;;;17.06;90.57;100216.58;1673388;85;25655;-60
2023/07/14 00:24:23;;;;;;;19.52;12.75;;;;;;;17.03;90.42;100222.77;1700792;83;26047;-60
2023/07/14 00:26:55;;;;;;;16.60;12.95;;;;;;;17.01;90.26;100225.05;1751350;81;25398;-60
2023/07/14 00:29:39;;;;;;;14.50;12.80;;;;;;;16.98;90.23;100221.09;1686842;83;29712;-60
2023/07/14 00:32:17;;;;;;;15.45;12.93;;;;;;;16.95;89.97;100217.12;1751120;82;25597;-60
2023/07/14 00:34:45;;;;;;;18.77;14.28;;;;;;;16.92;90.20;100210.20;1749510;81;25560;-60
2023/07/14 00:37:12;;;;;;;18.40;12.80;;;;;;;16.89;90.45;100223.20;1751226;82;26036;-59
2023/07/14 00:39:40;;;;;;;15.68;12.20;;;;;;;16.85;90.75;100215.50;1751293;82;25506;-59
2023/07/14 00:42:11;;;;;;;15.55;13.15;;;;;;;16.85;90.59;100221.75;1751377;81;27460;-59
2023/07/14 00:44:38;;;;;;;15.18;13.58;;;;;;;16.84;90.63;100221.55;1751241;81;25548;-59
2023/07/14 00:47:19;;;;;;;13.75;12.43;;;;;;;16.81;90.66;100214.81;1751277;81;25625;-59
2023/07/14 00:49:49;;;;;;;15.55;11.80;;;;;;;16.78;90.55;100217.45;1750347;82;25614;-59
2023/07/14 00:52:32;;;;;;;15.38;12.03;;;;;;;16.73;90.44;100218.50;1721728;82;25563;-59
2023/07/14 00:55:00;;;;;;;15.23;12.18;;;;;;;16.71;90.27;100219.44;1721702;82;27387;-58
2023/07/14 00:57:29;;;;;;;17.87;12.65;;;;;;;16.69;90.29;100212.17;1751179;81;25538;-58
2023/07/14 01:00:01;;;;;;;13.53;12.03;;;;;;;16.69;90.50;100220.36;1751242;81;25560;-59
2023/07/14 01:02:28;;;;;;;14.98;11.93;;;;;;;16.68;90.52;100220.13;1751103;81;25814;-59
2023/07/14 01:05:06;;;;;;;14.45;12.78;;;;;;;16.67;90.36;100217.75;1750999;81;25467;-59
2023/07/14 01:07:40;;;;;;;15.83;13.00;;;;;;;16.66;90.20;100217.55;1751031;81;28117;-59
2023/07/14 01:10:12;;;;;;;22.40;14.28;;;;;;;16.62;90.19;100217.46;1750960;82;25526;-58
2023/07/14 01:12:45;;;;;;;20.68;12.65;;;;;;;16.60;90.25;100219.73;1750997;82;25576;-60
2023/07/14 01:15:11;;;;;;;15.53;13.15;;;;;;;16.56;90.17;100223.73;1750980;82;25485;-60
2023/07/14 01:17:39;;;;;;;14.58;11.57;;;;;;;16.54;90.26;100221.15;1751042;82;25486;-60
2023/07/14 01:20:09;;;;;;;17.50;11.38;;;;;;;16.51;89.93;100228.09;1715087;83;27065;-60
2023/07/14 01:23:10;;;;;;;16.07;13.08;;;;;;;16.48;89.87;100231.55;1715033;83;25567;-60
2023/07/14 01:25:48;;;;;;;17.25;13.08;;;;;;;16.47;89.96;100230.53;1715069;83;25586;-59
2023/07/14 01:28:15;;;;;;;16.87;13.32;;;;;;;16.44;89.85;100237.47;1713011;83;25655;-60
2023/07/14 01:30:43;;;;;;;14.07;12.50;;;;;;;16.39;89.80;100230.31;1715063;83;25384;-60
2023/07/14 01:33:17;;;;;;;13.88;11.75;;;;;;;16.38;89.88;100234.78;1715022;83;27560;-60
2023/07/14 01:35:48;;;;;;;15.93;12.23;;;;;;;16.33;89.71;100234.46;1715060;83;25405;-59
2023/07/14 01:38:16;;;;;;;15.53;13.05;;;;;;;16.31;89.88;100235.94;1714740;83;25616;-59
2023/07/14 01:40:43;;;;;;;17.32;13.10;;;;;;;16.28;90.21;100234.72;1715019;83;26224;-59
2023/07/14 01:43:12;;;;;;;21.95;12.90;;;;;;;16.24;90.33;100235.17;1693990;83;25481;-59
2023/07/14 01:45:57;;;;;;;16.15;13.38;;;;;;;16.20;89.84;100247.94;1715209;83;27412;-59
2023/07/14 01:48:34;;;;;;;15.85;12.18;;;;;;;16.16;89.70;100255.24;1715014;83;25459;-59
2023/07/14 01:51:06;;;;;;;14.95;12.58;;;;;;;16.12;89.60;100259.20;1713352;83;25623;-60
2023/07/14 01:53:45;;;;;;;15.83;13.65;;;;;;;16.10;89.90;100255.26;1714903;83;25632;-60
2023/07/14 01:56:16;;;;;;;16.73;13.18;;;;;;;16.05;89.70;100263.89;1715237;83;25464;-60
2023/07/14 01:59:06;;;;;;;16.07;12.85;;;;;;;16.01;89.55;100266.31;1715064;83;28082;-60
2023/07/14 02:01:34;;;;;;;15.90;12.73;;;;;;;15.97;89.63;100268.13;1715084;83;25514;-60
2023/07/14 02:04:05;;;;;;;14.33;11.78;;;;;;;15.92;89.86;100267.83;1713008;83;25430;-60
2023/07/14 02:06:34;;;;;;;15.40;12.20;;;;;;;15.89;89.66;100267.73;1712468;83;26059;-60
2023/07/14 02:09:01;;;;;;;17.92;13.18;;;;;;;15.86;89.55;100264.52;1692308;83;25644;-60
2023/07/14 02:11:29;;;;;;;18.65;13.25;;;;;;;15.82;89.18;100262.28;1712463;83;27695;-60
2023/07/14 02:13:58;;;;;;;18.17;12.53;;;;;;;15.77;89.05;100271.27;1712603;83;25476;-61
2023/07/14 02:16:26;;;;;;;16.52;13.28;;;;;;;15.74;89.35;100274.66;1712466;83;25618;-60
2023/07/14 02:18:54;;;;;;;16.00;12.10;;;;;;;15.70;89.39;100282.73;1692415;83;25450;-61
2023/07/14 02:21:28;;;;;;;13.78;11.90;;;;;;;15.65;88.93;100282.39;1715894;83;25619;-61
2023/07/14 02:23:59;;;;;;;14.63;12.53;;;;;;;15.61;88.86;100294.31;1712455;83;27519;-60
2023/07/14 02:26:33;;;;;;;16.70;13.80;;;;;;;15.58;89.24;100295.81;1712377;83;25528;-61
2023/07/14 02:29:00;;;;;;;17.62;12.37;;;;;;;15.55;89.26;100287.52;1712508;83;25374;-60
2023/07/14 02:31:48;;;;;;;14.98;12.35;;;;;;;15.50;88.82;100285.82;1712425;83;25609;-60
2023/07/14 02:34:17;;;;;;;16.52;11.68;;;;;;;15.45;89.04;100281.39;1712438;83;25429;-61
2023/07/14 02:37:04;;;;;;;18.65;12.98;;;;;;;15.40;88.87;100289.79;1712593;83;27414;-59
2023/07/14 02:39:38;;;;;;;16.02;11.93;;;;;;;15.36;88.74;100294.89;1712381;83;25476;-60
2023/07/14 02:42:06;;;;;;;17.75;12.90;;;;;;;15.30;88.71;100301.94;1689452;83;25591;-60
2023/07/14 02:44:37;;;;;;;14.87;12.43;;;;;;;15.27;88.66;100308.63;1712432;83;26198;-60
2023/07/14 02:47:15;;;;;;;17.67;12.18;;;;;;;15.22;88.52;100308.31;1688825;83;25523;-60
2023/07/14 02:49:48;;;;;;;16.87;13.58;;;;;;;15.16;88.54;100294.67;1712270;83;28359;-60
2023/07/14 02:52:11;;;;;;;17.40;12.75;;;;;;;15.12;88.91;100296.50;1712251;83;25395;-59
2023/07/14 02:54:39;;;;;;;15.88;12.70;;;;;;;15.10;89.20;100298.20;1712417;83;25440;-61
2023/07/14 02:57:05;;;;;;;19.27;14.53;;;;;;;15.09;89.49;100299.32;1712386;83;25581;-60
2023/07/14 02:59:32;;;;;;;15.10;12.85;;;;;;;15.07;89.79;100302.95;1712416;83;25556;-60
2023/07/14 03:01:59;;;;;;;18.20;13.15;;;;;;;15.07;89.91;100307.05;1712410;83;28238;-60
2023/07/14 03:04:26;;;;;;;18.55;14.28;;;;;;;15.06;90.04;100305.44;1714151;83;25853;-60
2023/07/14 03:06:52;;;;;;;17.98;14.23;;;;;;;15.05;90.80;100308.50;1714671;83;25621;-60
2023/07/14 03:09:19;;;;;;;18.07;13.60;;;;;;;15.06;90.93;100304.66;1714679;83;25506;-60
2023/07/14 03:11:45;;;;;;;19.60;14.15;;;;;;;15.06;90.78;100307.38;1714731;83;25559;-59
2023/07/14 03:14:11;;;;;;;23.18;15.53;;;;;;;15.06;90.80;100305.44;1694493;83;27667;-60
2023/07/14 03:16:38;;;;;;;17.00;13.68;;;;;;;15.06;91.14;100304.08;1694296;83;25575;-59
2023/07/14 03:19:05;;;;;;;21.42;13.32;;;;;;;15.09;91.35;100312.16;1718604;83;25454;-59
2023/07/14 03:21:31;;;;;;;17.77;14.00;;;;;;;15.08;91.46;100311.34;1714657;83;25700;-59
2023/07/14 03:23:58;;;;;;;18.48;14.00;;;;;;;15.12;91.76;100313.63;1709720;83;25568;-59
2023/07/14 03:26:25;;;;;;;15.63;13.18;;;;;;;15.12;91.73;100312.27;1714735;83;28047;-59
2023/07/14 03:28:51;;;;;;;21.40;14.03;;;;;;;15.14;91.63;100318.75;1694308;83;25972;-59
2023/07/14 03:31:17;;;;;;;16.93;14.73;;;;;;;15.17;92.23;100320.80;1714759;83;25439;-59
2023/07/14 03:33:43;;;;;;;17.70;15.38;;;;;;;15.23;92.97;100333.62;1714591;83;25574;-59
2023/07/14 03:36:13;;;;;;;19.15;15.72;;;;;;;15.27;93.27;100344.88;1714728;83;25552;-59
2023/07/14 03:38:43;;;;;;;24.52;17.70;;;;;;;15.29;93.59;100330.91;1714735;83;27471;-59
2023/07/14 03:41:12;;;;;;;22.65;17.20;;;;;;;15.36;94.20;100338.50;1714614;83;25440;-59
2023/07/14 03:43:39;;;;;;;21.05;17.35;;;;;;;15.39;94.08;100335.91;1714847;83;25451;-59
2023/07/14 03:46:07;;;;;;;26.73;19.10;;;;;;;15.44;94.58;100343.05;1714655;83;25521;-59
2023/07/14 03:48:34;;;;;;;25.65;19.37;;;;;;;15.49;95.27;100344.19;1714720;83;25574;-59
2023/07/14 03:51:03;;;;;;;24.85;20.25;;;;;;;15.53;95.35;100335.57;1714627;83;27480;-58
2023/07/14 03:53:30;;;;;;;26.65;20.77;;;;;;;15.58;95.77;100346.80;1714572;83;25468;-59
2023/07/14 03:55:58;;;;;;;25.20;20.10;;;;;;;15.61;95.75;100335.21;1714681;83;25428;-59
2023/07/14 03:58:24;;;;;;;23.22;19.95;;;;;;;15.62;95.93;100340.91;1714662;83;25564;-59
2023/07/14 04:00:50;;;;;;;25.37;18.57;;;;;;;15.67;95.92;100341.45;1714720;83;25474;-59
2023/07/14 04:03:16;;;;;;;20.52;18.35;;;;;;;15.68;95.96;100330.79;1714574;83;27525;-59
2023/07/14 04:05:47;;;;;;;20.50;18.40;;;;;;;15.74;96.05;100342.83;1694259;83;25459;-58
2023/07/14 04:08:14;;;;;;;24.82;18.27;;;;;;;15.77;96.30;100334.00;1709686;83;25607;-59
2023/07/14 04:10:40;;;;;;;21.75;19.25;;;;;;;15.81;96.38;100334.89;1714659;83;26016;-59
2023/07/14 04:13:06;;;;;;;21.50;19.20;;;;;;;15.85;96.60;100333.86;1714633;83;25399;-59
2023/07/14 04:15:33;;;;;;;23.12;19.70;;;;;;;15.89;96.59;100336.70;1714702;83;27472;-59
2023/07/14 04:17:59;;;;;;;24.52;20.40;;;;;;;15.94;96.61;100331.00;1714585;83;27294;-59
2023/07/14 04:20:25;;;;;;;24.98;19.98;;;;;;;15.97;96.64;100331.69;1714685;83;25606;-59
2023/07/14 04:22:52;;;;;;;24.92;21.57;;;;;;;16.03;97.22;100338.48;1714622;83;27691;-60
2023/07/14 04:25:19;;;;;;;24.82;19.65;;;;;;;16.09;97.29;100337.69;1714705;83;25520;-61
2023/07/14 04:27:46;;;;;;;22.20;18.95;;;;;;;16.15;97.24;100336.86;1714644;83;27465;-59
2023/07/14 04:30:13;;;;;;;21.42;19.17;;;;;;;16.19;97.46;100336.39;1714621;83;25526;-59
2023/07/14 04:32:43;;;;;;;25.52;21.40;;;;;;;16.27;98.30;100342.28;1718574;83;25472;-60
2023/07/14 04:35:09;;;;;;;22.48;19.70;;;;;;;16.35;98.31;100346.02;1694372;83;25562;-60
2023/07/14 04:37:35;;;;;;;22.00;19.65;;;;;;;16.42;98.18;100346.22;1714795;83;25567;-57
2023/07/14 04:40:02;;;;;;;23.62;18.85;;;;;;;16.49;98.09;100345.63;1714770;83;27442;-59
2023/07/14 04:42:28;;;;;;;21.80;19.35;;;;;;;16.56;98.74;100355.37;1714594;83;25498;-60
2023/07/14 04:44:54;;;;;;;23.22;19.15;;;;;;;16.64;98.78;100356.38;1714706;83;25455;-60
2023/07/14 04:47:20;;;;;;;23.18;20.45;;;;;;;16.71;99.09;100362.81;1714625;83;25623;-60
2023/07/14 04:49:47;;;;;;;26.90;19.77;;;;;;;16.79;99.22;100363.23;1714690;83;25388;-59
2023/07/14 04:52:13;;;;;;;21.05;18.90;;;;;;;16.89;99.55;100370.16;1714643;83;27522;-59
2023/07/14 04:54:40;;;;;;;26.73;20.85;;;;;;;16.96;99.06;100360.78;1714736;83;25514;-57
2023/07/14 04:57:07;;;;;;;23.55;20.95;;;;;;;17.06;98.63;100369.59;1714849;83;25559;-56
2023/07/14 04:59:35;;;;;;;20.57;17.70;;;;;;;17.10;98.25;100362.30;1714813;83;27733;-56
2023/07/14 05:02:05;;;;;;;24.57;17.95;;;;;;;17.15;98.04;100370.24;1714853;83;25557;-59
2023/07/14 05:04:33;;;;;;;;;;;;;;;17.20;98.11;100370.53;1720491;83;28194;-59
2023/07/14 05:07:00;;;;;;;21.55;17.60;;;;;;;17.28;98.47;100373.12;1720150;83;25611;-57
2023/07/14 05:09:27;;;;;;;24.60;18.90;;;;;;;17.34;98.72;100377.73;1756463;81;25412;-57
2023/07/14 05:11:53;;;;;;;21.55;18.48;;;;;;;17.44;98.99;100378.58;1756480;81;26102;-58
2023/07/14 05:14:19;;;;;;;19.70;16.95;;;;;;;17.52;98.76;100374.88;1720210;83;25470;-57
2023/07/14 05:16:45;;;;;;;21.93;18.02;;;;;;;17.59;98.89;100370.15;1756453;81;29621;-55
2023/07/14 05:19:11;;;;;;;23.90;16.57;;;;;;;17.68;98.19;100371.33;1756391;81;25389;-58
2023/07/14 05:21:38;;;;;;;20.27;16.82;;;;;;;17.73;97.70;100377.89;1756479;81;25578;-55
2023/07/14 05:24:05;;;;;;;19.65;16.62;;;;;;;17.81;98.39;100378.28;1720220;83;25569;-51
2023/07/14 05:26:31;;;;;;;91.60;85.12;;;;;;;17.89;97.94;100386.09;1756515;81;25393;-55
2023/07/14 05:28:58;;;;;;;97.05;90.40;;;;;;;17.97;98.87;100373.38;1720219;83;27514;-54
2023/07/14 05:31:25;;;;;;;98.42;91.53;;;;;;;18.06;99.07;100374.74;1756348;81;25746;-54
2023/07/14 05:33:51;;;;;;;95.92;89.62;;;;;;;18.16;99.41;100385.72;1726700;81;25488;-55
2023/07/14 05:36:17;;;;;;;75.52;70.45;;;;;;;18.23;98.50;100379.02;1720174;83;25570;-55
2023/07/14 05:38:43;;;;;;;16.97;13.03;;;;;;;18.35;98.33;100386.30;1756516;81;25573;-55
2023/07/14 05:41:10;;;;;;;19.77;17.60;;;;;;;18.38;96.23;100388.33;1720204;83;27521;-57
2023/07/14 05:43:36;;;;;;;27.67;25.30;;;;;;;18.51;98.20;100391.73;1756460;81;25393;-56
2023/07/14 05:46:03;;;;;;;91.65;85.72;;;;;;;18.62;97.67;100391.36;1756507;81;25456;-56
2023/07/14 05:48:30;;;;;;;93.45;87.27;;;;;;;18.71;97.81;100392.53;1720102;83;25618;-54
2023/07/14 05:50:56;;;;;;;95.55;89.05;;;;;;;18.83;97.80;100389.66;1756447;81;25630;-56
2023/07/14 05:53:23;;;;;;;94.87;88.40;;;;;;;19.00;98.47;100399.92;1756474;81;27545;-54
2023/07/14 05:55:49;;;;;;;91.00;84.85;;;;;;;19.11;97.27;100393.29;1756423;81;25451;-56
2023/07/14 05:58:17;;;;;;;91.45;85.25;;;;;;;19.22;95.47;100395.06;1756486;81;25658;-56
2023/07/14 06:00:44;;;;;;;92.50;86.08;;;;;;;19.31;94.00;100397.56;1726395;81;25424;-56
2023/07/14 06:03:16;;;;;;;87.57;81.82;;;;;;;19.40;93.42;100391.23;1756658;81;25382;-56
2023/07/14 06:05:50;;;;;;;81.53;76.35;;;;;;;19.53;93.42;100387.73;1751620;81;27530;-57
2023/07/14 06:08:18;;;;;;;88.17;82.17;;;;;;;19.68;92.19;100388.76;1699918;82;25719;-55
2023/07/14 06:10:46;;;;;;;87.20;81.32;;;;;;;19.85;92.33;100393.52;1726370;83;25622;-56
2023/07/14 06:13:13;;;;;;;89.90;84.00;;;;;;;19.98;90.61;100396.86;1726321;83;25885;-56
2023/07/14 06:15:39;;;;;;;91.30;84.97;;;;;;;20.06;89.46;100390.31;1726401;83;25445;-56
2023/07/14 06:18:05;;;;;;;91.08;84.95;;;;;;;20.20;89.27;100399.33;1726356;83;28194;-57
2023/07/14 06:20:32;;;;;;;85.57;79.95;;;;;;;20.30;88.34;100398.08;1726369;83;25638;-57
2023/07/14 06:22:58;;;;;;;84.80;79.53;;;;;;;20.41;89.12;100391.94;1726531;83;25452;-56
2023/07/14 06:25:25;;;;;;;90.03;84.35;;;;;;;20.52;87.89;100399.14;1693367;83;26178;-56
2023/07/14 06:27:51;;;;;;;84.50;79.03;;;;;;;20.64;87.10;100395.98;1726399;83;25426;-57
2023/07/14 06:30:17;;;;;;;85.67;80.12;;;;;;;20.75;85.84;100400.22;1726371;83;27515;-57
2023/07/14 06:32:44;;;;;;;83.25;77.87;;;;;;;20.83;83.97;100400.50;1726346;83;25540;-57
2023/07/14 06:35:10;;;;;;;82.30;77.00;;;;;;;20.88;83.49;100400.95;1726412;83;25630;-57
2023/07/14 06:37:37;;;;;;;85.35;79.70;;;;;;;20.98;83.25;100398.70;1726480;83;25550;-54
2023/07/14 06:40:08;;;;;;;85.77;80.32;;;;;;;21.10;82.89;100394.90;1726391;83;25406;-58
2023/07/14 06:42:35;;;;;;;83.90;78.60;;;;;;;21.21;82.70;100399.30;1726345;83;27507;-57
2023/07/14 06:45:04;;;;;;;85.45;79.72;;;;;;;21.36;82.57;100400.83;1726278;82;25708;-58
2023/07/14 06:47:32;;;;;;;84.90;79.72;;;;;;;21.51;82.15;100410.02;1726398;83;25378;-58
2023/07/14 06:50:00;;;;;;;92.15;86.10;;;;;;;21.58;79.88;100397.09;1726279;83;25489;-57
2023/07/14 06:52:26;;;;;;;89.15;83.50;;;;;;;21.66;79.85;100402.65;1718293;82;25640;-57
2023/07/14 06:54:53;;;;;;;87.17;81.45;;;;;;;21.76;78.74;100399.99;1726306;83;27553;-56
2023/07/14 06:57:19;;;;;;;87.80;81.85;;;;;;;21.88;79.03;100402.22;1726214;83;27298;-54
2023/07/14 06:59:47;;;;;;;85.47;80.00;;;;;;;21.97;77.72;100393.05;1726367;83;25520;-55
2023/07/14 07:02:14;;;;;;;82.25;77.25;;;;;;;22.12;78.74;100393.33;1726269;83;25594;-57
2023/07/14 07:04:41;;;;;;;81.80;76.17;;;;;;;22.34;78.65;100398.38;1726708;83;25610;-57
2023/07/14 07:07:08;;;;;;;82.57;77.62;;;;;;;22.51;77.35;100401.02;1725904;82;27458;-55
2023/07/14 07:09:36;;;;;;;83.85;78.70;;;;;;;22.71;76.83;100395.16;1715702;83;25404;-54
2023/07/14 07:12:05;;;;;;;66.53;62.23;;;;;;;22.92;76.32;100403.50;1715772;83;25491;-56
2023/07/14 07:14:31;;;;;;;22.20;19.75;;;;;;;23.15;75.33;100392.72;1715657;83;25578;-57
2023/07/14 07:16:57;;;;;;;14.63;13.03;;;;;;;23.38;75.31;100393.73;1715759;83;25519;-55
2023/07/14 07:19:24;;;;;;;83.60;77.95;;;;;;;23.61;74.36;100401.60;1715701;83;27536;-54
2023/07/14 07:21:50;;;;;;;51.30;47.40;;;;;;;23.80;72.74;100396.84;1715597;83;25599;-53
2023/07/14 07:27:06;;;;;;;12.68;6.95;;;;;;;24.14;72.05;100392.27;1724818;82;25608;-54
2023/07/14 07:29:32;;;;;;;12.00;5.17;;;;;;;24.40;70.22;100397.31;1722053;83;25489;-56
2023/07/14 07:31:58;;;;;;;9.13;6.35;;;;;;;24.57;69.55;100392.93;1770328;81;28188;-58
2023/07/14 07:34:25;;;;;;;6.70;5.80;;;;;;;24.74;68.89;100395.41;1770086;81;25437;-59
2023/07/14 07:36:52;;;;;;;10.32;4.78;;;;;;;24.93;68.00;100403.79;1770223;81;25556;-56
2023/07/14 07:39:19;;;;;;;9.78;5.50;;;;;;;25.12;66.36;100398.94;1770255;81;25720;-57
2023/07/14 07:41:45;;;;;;;8.93;4.65;;;;;;;25.29;65.86;100398.03;1740811;81;25669;-59
2023/07/14 07:44:12;;;;;;;6.30;4.53;;;;;;;25.49;65.72;100397.50;1770215;81;27495;-60
2023/07/14 07:46:38;;;;;;;10.32;4.87;;;;;;;25.78;64.89;100402.17;1770189;80;25544;-58
2023/07/14 07:49:04;;;;;;;7.42;4.97;;;;;;;25.85;62.29;100397.94;1770225;81;25532;-60
2023/07/14 07:51:31;;;;;;;8.75;4.40;;;;;;;25.97;62.40;100404.20;1770221;81;26196;-58
2023/07/14 07:53:57;;;;;;;9.43;4.40;;;;;;;26.16;61.67;100404.96;1770199;81;25417;-56
2023/07/14 07:56:23;;;;;;;7.53;4.55;;;;;;;26.19;60.58;100404.75;1770206;81;27569;-57
2023/07/14 07:58:49;;;;;;;9.05;4.75;;;;;;;26.26;60.05;100405.44;1770096;81;25453;-58
2023/07/14 08:01:23;;;;;;;6.60;4.90;;;;;;;26.43;61.13;100395.94;1746363;81;25607;-58
2023/07/14 08:03:51;;;;;;;7.80;4.67;;;;;;;26.63;59.43;100407.98;1770323;81;25465;-58
2023/07/14 08:06:18;;;;;;;8.68;4.40;;;;;;;26.74;58.96;100411.22;1770477;81;25485;-59
2023/07/14 08:08:46;;;;;;;8.70;4.50;;;;;;;26.75;57.79;100408.61;1770223;81;27488;-58
2023/07/14 08:11:13;;;;;;;5.22;4.03;;;;;;;26.92;58.41;100408.98;1770105;81;25592;-59
2023/07/14 08:13:42;;;;;;;6.45;3.65;;;;;;;27.15;57.80;100414.39;1770172;81;25397;-59
2023/07/14 08:16:08;;;;;;;5.30;3.87;;;;;;;27.38;57.32;100415.06;1770303;81;25564;-59
2023/07/14 08:18:34;;;;;;;5.20;4.00;;;;;;;27.66;56.43;100418.55;1770193;81;25369;-59
2023/07/14 08:21:01;;;;;;;10.43;3.98;;;;;;;27.94;55.43;100418.08;1770163;81;27569;-58
2023/07/14 08:23:28;;;;;;;5.78;3.77;;;;;;;28.18;55.43;100424.98;1770147;81;25365;-58
2023/07/14 08:25:59;;;;;;;7.47;3.85;;;;;;;28.30;53.46;100424.95;1772452;80;25491;-59
2023/07/14 08:28:27;;;;;;;7.85;3.72;;;;;;;28.26;50.90;100419.43;1776081;80;25579;-57
2023/07/14 08:30:58;;;;;;;8.20;3.98;;;;;;;28.18;52.11;100428.34;1776156;80;25623;-59
2023/07/14 08:33:25;;;;;;;4.90;4.15;;;;;;;28.28;51.57;100425.95;1776174;80;27531;-59
2023/07/14 08:35:54;;;;;;;4.40;3.80;;;;;;;28.32;50.67;100428.08;1775999;80;25366;-60
2023/07/14 08:38:22;;;;;;;6.45;4.00;;;;;;;28.36;49.47;100426.00;1776309;80;25571;-59
2023/07/14 08:40:53;;;;;;;7.15;3.75;;;;;;;28.50;50.03;100423.52;1776304;80;26071;-59
2023/07/14 08:44:04;;;;;;;7.70;3.98;;;;;;;28.61;49.61;100430.30;1776152;80;25392;-59
2023/07/14 08:46:49;;;;;;;5.58;3.25;;;;;;;28.75;49.41;100427.20;1776142;80;27628;-59
2023/07/14 08:49:32;;;;;;;4.53;3.35;;;;;;;28.89;48.56;100426.09;1776028;80;25662;-59
2023/07/14 08:52:04;;;;;;;7.05;3.72;;;;;;;28.92;47.90;100418.89;1753842;80;25428;-59
2023/07/14 08:54:48;;;;;;;5.87;3.75;;;;;;;29.11;47.00;100425.61;1775459;80;26047;-65
2023/07/14 08:57:19;;;;;;;4.75;3.15;;;;;;;29.08;45.83;100418.89;1776166;80;25389;-59
2023/07/14 08:59:48;;;;;;;3.83;2.98;;;;;;;28.96;45.63;100424.56;1776124;80;28691;-56
2023/07/14 09:02:23;;;;;;;8.23;2.83;;;;;;;29.01;45.82;100415.70;1776216;80;25738;-59
2023/07/14 09:05:04;;;;;;;4.00;3.10;;;;;;;29.06;45.96;100421.33;1775815;80;25364;-59
2023/07/14 09:07:30;;;;;;;5.20;3.25;;;;;;;29.29;46.34;100426.00;1776113;80;26089;-51
2023/07/14 09:09:57;;;;;;;7.35;4.00;;;;;;;29.20;45.52;100418.26;1776106;80;25621;-53
2023/07/14 09:12:36;;;;;;;6.00;2.80;;;;;;;29.29;45.87;100426.00;1776174;80;28070;-52
2023/07/14 09:15:16;;;;;;;5.35;2.60;;;;;;;29.49;44.92;100432.08;1765741;80;25184;-52
2023/07/14 09:18:04;;;;;;;4.78;2.80;;;;;;;29.34;43.85;100426.87;1776222;80;25467;-52
2023/07/14 09:20:48;;;;;;;4.92;2.72;;;;;;;29.20;43.59;100428.59;1776218;80;25965;-53
2023/07/14 09:23:44;;;;;;;4.20;2.70;;;;;;;29.02;44.13;100430.39;1764639;80;25817;-52
2023/07/14 09:26:43;;;;;;;4.65;2.80;;;;;;;29.12;44.19;100427.97;1775994;80;29619;-51
2023/07/14 09:29:21;;;;;;;4.15;2.58;;;;;;;29.32;44.17;100422.94;1775776;79;25473;-51
2023/07/14 09:32:05;;;;;;;3.17;2.72;;;;;;;29.34;43.18;100428.88;1774353;80;25794;-50
2023/07/14 09:34:43;;;;;;;3.02;2.42;;;;;;;29.25;42.32;100432.25;1776054;80;26057;-54
2023/07/14 09:37:17;;;;;;;2.50;2.30;;;;;;;29.23;42.80;100428.53;1775303;80;25691;-54
2023/07/14 09:39:46;;;;;;;3.12;2.30;;;;;;;29.35;42.17;100422.85;1775065;80;27536;-55
2023/07/14 09:42:21;;;;;;;7.30;1.98;;;;;;;29.51;42.14;100414.31;1753324;80;25725;-58
2023/07/14 09:44:47;;;;;;;4.58;2.15;;;;;;;29.70;39.81;100424.58;1774823;80;25681;-57
2023/07/14 09:47:16;;;;;;;4.37;2.10;;;;;;;29.41;39.87;100419.73;1775265;80;25971;-56
2023/07/14 09:49:47;;;;;;;4.47;2.20;;;;;;;29.46;40.74;100407.28;1775448;80;32576;-54
2023/07/14 09:52:25;;;;;;;4.20;2.25;;;;;;;29.71;41.04;100417.80;1776109;80;27632;-57
2023/07/14 09:54:56;;;;;;;3.17;1.60;;;;;;;29.68;40.13;100427.02;1775022;80;25531;-56
2023/07/14 09:57:27;;;;;;;2.70;1.98;;;;;;;29.58;40.12;100423.28;1776153;80;25539;-57
2023/07/14 10:00:00;;;;;;;3.67;1.67;;;;;;;29.76;39.07;100420.64;1776052;80;25594;-55
2023/07/14 10:02:31;;;;;;;5.58;1.77;;;;;;;30.10;39.83;100417.34;1776132;80;25614;-55
2023/07/14 10:05:06;;;;;;;3.98;2.37;;;;;;;30.59;39.74;100410.81;1776125;80;27411;-54
2023/07/14 10:07:40;;;;;;;3.02;1.90;;;;;;;31.01;38.89;100414.17;1761935;80;25386;-59
2023/07/14 10:10:09;;;;;;;23.92;21.33;;;;;;;31.07;37.68;100406.77;1775848;80;25523;-56
2023/07/14 10:12:44;;;;;;;19.07;16.15;;;;;;;31.05;37.07;100409.23;1775714;80;25688;-55
2023/07/14 10:15:32;;;;;;;4.78;4.33;;;;;;;31.06;37.24;100412.98;1774569;80;25600;-56
2023/07/14 10:18:07;;;;;;;5.33;2.40;;;;;;;31.10;36.41;100401.69;1776116;80;28370;-58
2023/07/14 10:20:35;;;;;;;3.77;2.30;;;;;;;30.77;36.37;100415.86;1775788;80;25794;-57
2023/07/14 10:23:02;;;;;;;3.75;2.12;;;;;;;30.51;36.79;100400.48;1776102;80;25542;-57
2023/07/14 10:25:31;;;;;;;2.87;1.80;;;;;;;30.63;37.00;100407.31;1776066;80;25553;-58
2023/07/14 10:28:00;;;;;;;;;;;;;;;30.78;36.71;100405.47;1778696;80;25445;-57
2023/07/14 10:30:35;;;;;;;2.80;2.22;;;;;;;30.89;36.09;100407.33;1776107;80;27465;-58
2023/07/14 10:33:03;;;;;;;3.20;2.00;;;;;;;30.85;34.58;100411.62;1774854;80;25497;-57
2023/07/14 10:35:35;;;;;;;3.52;1.82;;;;;;;30.76;34.94;100405.91;1776216;80;25590;-59
2023/07/14 10:38:26;;;;;;;4.28;2.40;;;;;;;30.82;34.65;100406.13;1776121;80;26206;-57
2023/07/14 10:41:06;;;;;;;3.12;1.95;;;;;;;30.88;34.31;100419.71;1776139;80;25587;-56
2023/07/14 10:43:47;;;;;;;3.52;1.85;;;;;;;30.81;33.62;100405.98;1776100;80;27499;-56
2023/07/14 10:46:18;;;;;;;4.22;2.10;;;;;;;30.97;34.45;100405.88;1775958;80;25683;-56
2023/07/14 10:48:59;;;;;;;2.22;1.85;;;;;;;31.06;33.39;100394.05;1776096;80;25559;-57
2023/07/14 10:51:36;;;;;;;3.17;1.42;;;;;;;31.11;33.89;100386.51;1775807;80;25511;-53
2023/07/14 10:54:14;;;;;;;5.65;1.87;;;;;;;31.27;33.50;100387.75;1776061;80;25592;-56
2023/07/14 10:56:57;;;;;;;1.87;1.70;;;;;;;31.30;32.62;100400.67;1776424;80;27488;-56
2023/07/14 10:59:40;;;;;;;3.77;2.02;;;;;;;31.18;32.23;100383.47;1735964;82;25498;-66
2023/07/14 11:02:30;;;;;;;5.33;1.82;;;;;;;31.05;33.32;100379.28;1735310;82;25651;-59
2023/07/14 11:05:05;;;;;;;5.62;1.92;;;;;;;30.93;33.37;100387.04;1736280;82;25601;-60
2023/07/14 11:07:34;;;;;;;1.82;1.60;;;;;;;30.54;33.48;100392.59;1735590;82;25465;-59
2023/07/14 11:10:06;;;;;;;4.92;1.70;;;;;;;30.26;33.80;100381.66;1736510;82;27613;-59
2023/07/14 11:12:56;;;;;;;3.87;1.70;;;;;;;30.34;34.38;100379.42;1735165;82;25814;-61
2023/07/14 11:15:27;;;;;;;3.15;1.82;;;;;;;30.64;34.64;100378.16;1735279;82;25509;-57
2023/07/14 11:18:25;;;;;;;3.08;1.77;;;;;;;30.60;33.07;100378.09;1735130;82;27641;-57
2023/07/14 11:21:04;;;;;;;3.27;1.50;;;;;;;30.46;34.25;100376.52;1754106;81;25832;-57
2023/07/14 11:23:42;;;;;;;2.98;2.02;;;;;;;30.57;34.23;100381.80;1728804;81;27306;-59
2023/07/14 11:26:17;;;;;;;2.47;1.70;;;;;;;30.77;33.98;100373.19;1680284;85;25872;-57
2023/07/14 11:28:54;;;;;;;4.47;1.87;;;;;;;30.82;33.50;100374.02;1674450;85;25520;-60
2023/07/14 11:31:29;;;;;;;4.05;1.98;;;;;;;30.69;32.26;100375.44;1674371;85;26444;-59
2023/07/14 11:34:30;;;;;;;5.85;2.25;;;;;;;30.39;33.37;100375.34;1674606;85;25642;-63